sensor_id;sensor_type;location;lat;lon;timestamp;pressure;altitude;pressure_sealevel;temperature;humidity
17072;BME280;7731;50.720;6.912;2024-01-30T00:00:22;101245.88;;;7.49;100.00
17072;BME280;7731;50.720;6.912;2024-01-30T00:02:53;101239.97;;;7.47;100.00
17072;BME280;7731;50.720;6.912;2024-01-30T00:05:26;101240.84;;;7.46;100.00
17072;BME280;7731;50.720;6.912;2024-01-30T00:07:56;101237.50;;;7.42;100.00
17072;BME280;7731;50.720;6.912;2024-01-30T00:10:26;101228.88;;;7.48;100.00
17072;BME280;7731;50.720;6.912;2024-01-30T00:12:57;101232.09;;;7.58;100.00
17072;BME280;7731;50.720;6.912;2024-01-30T00:15:30;101226.81;;;7.67;100.00
17072;BME280;7731;50.720;6.912;2024-01-30T00:18:03;101228.69;;;7.59;100.00
17072;BME280;7731;50.720;6.912;2024-01-30T00:20:37;101234.84;;;7.47;100.00
17072;BME280;7731;50.720;6.912;2024-01-30T00:23:08;101223.72;;;7.51;100.00
17072;BME280;7731;50.720;6.912;2024-01-30T00:25:38;101227.16;;;7.48;100.00
17072;BME280;7731;50.720;6.912;2024-01-30T00:28:11;101221.88;;;7.58;100.00
17072;BME280;7731;50.720;6.912;2024-01-30T00:30:51;101223.78;;;7.48;100.00
17072;BME280;7731;50.720;6.912;2024-01-30T00:33:21;101220.13;;;7.58;100.00
17072;BME280;7731;50.720;6.912;2024-01-30T00:35:54;101216.63;;;7.64;100.00
17072;BME280;7731;50.720;6.912;2024-01-30T00:38:25;101214.28;;;7.53;100.00
17072;BME280;7731;50.720;6.912;2024-01-30T00:40:55;101219.63;;;7.41;100.00
17072;BME280;7731;50.720;6.912;2024-01-30T00:43:32;101214.16;;;7.59;100.00
17072;BME280;7731;50.720;6.912;2024-01-30T00:46:02;101214.69;;;7.31;100.00
17072;BME280;7731;50.720;6.912;2024-01-30T00:48:38;101211.16;;;7.37;100.00
17072;BME280;7731;50.720;6.912;2024-01-30T00:51:11;101218.03;;;7.35;100.00
17072;BME280;7731;50.720;6.912;2024-01-30T00:53:42;101216.47;;;7.26;100.00
17072;BME280;7731;50.720;6.912;2024-01-30T00:56:12;101209.69;;;7.25;100.00
17072;BME280;7731;50.720;6.912;2024-01-30T00:58:45;101204.59;;;7.25;100.00
17072;BME280;7731;50.720;6.912;2024-01-30T01:01:16;101210.56;;;7.24;100.00
17072;BME280;7731;50.720;6.912;2024-01-30T01:03:49;101207.91;;;7.29;100.00
17072;BME280;7731;50.720;6.912;2024-01-30T01:06:22;101208.75;;;7.29;100.00
17072;BME280;7731;50.720;6.912;2024-01-30T01:08:52;101199.38;;;7.30;100.00
17072;BME280;7731;50.720;6.912;2024-01-30T01:11:31;101203.31;;;7.48;100.00
17072;BME280;7731;50.720;6.912;2024-01-30T01:14:02;101207.41;;;7.55;100.00
17072;BME280;7731;50.720;6.912;2024-01-30T01:16:33;101205.78;;;7.53;100.00
17072;BME280;7731;50.720;6.912;2024-01-30T01:19:04;101206.69;;;7.48;100.00
17072;BME280;7731;50.720;6.912;2024-01-30T01:21:37;101202.53;;;7.43;100.00
17072;BME280;7731;50.720;6.912;2024-01-30T01:24:11;101209.41;;;7.41;100.00
17072;BME280;7731;50.720;6.912;2024-01-30T01:26:41;101204.22;;;7.44;100.00
17072;BME280;7731;50.720;6.912;2024-01-30T01:29:14;101203.16;;;7.56;100.00
17072;BME280;7731;50.720;6.912;2024-01-30T01:31:44;101203.31;;;7.48;100.00
17072;BME280;7731;50.720;6.912;2024-01-30T01:34:15;101201.44;;;7.56;100.00
17072;BME280;7731;50.720;6.912;2024-01-30T01:36:49;101199.25;;;7.80;100.00
17072;BME280;7731;50.720;6.912;2024-01-30T01:39:23;101202.91;;;7.68;100.00
17072;BME280;7731;50.720;6.912;2024-01-30T01:41:53;101194.44;;;7.64;100.00
17072;BME280;7731;50.720;6.912;2024-01-30T01:44:23;101185.28;;;7.54;100.00
17072;BME280;7731;50.720;6.912;2024-01-30T01:46:54;101195.66;;;7.48;100.00
17072;BME280;7731;50.720;6.912;2024-01-30T01:49:28;101202.97;;;7.65;100.00
17072;BME280;7731;50.720;6.912;2024-01-30T01:52:14;101202.00;;;7.71;100.00
17072;BME280;7731;50.720;6.912;2024-01-30T01:54:47;101197.78;;;7.69;100.00
17072;BME280;7731;50.720;6.912;2024-01-30T01:57:21;101201.19;;;7.68;100.00
17072;BME280;7731;50.720;6.912;2024-01-30T01:59:52;101196.63;;;7.83;100.00
17072;BME280;7731;50.720;6.912;2024-01-30T02:02:24;101188.97;;;7.81;100.00
17072;BME280;7731;50.720;6.912;2024-01-30T02:05:14;101186.31;;;7.86;100.00
17072;BME280;7731;50.720;6.912;2024-01-30T02:07:47;101177.59;;;7.96;100.00
17072;BME280;7731;50.720;6.912;2024-01-30T02:10:20;101185.38;;;7.90;100.00
17072;BME280;7731;50.720;6.912;2024-01-30T02:12:53;101189.72;;;7.88;100.00
17072;BME280;7731;50.720;6.912;2024-01-30T02:15:24;101182.06;;;7.86;100.00
17072;BME280;7731;50.720;6.912;2024-01-30T02:17:54;101178.59;;;7.89;100.00
17072;BME280;7731;50.720;6.912;2024-01-30T02:20:26;101180.34;;;7.87;100.00
17072;BME280;7731;50.720;6.912;2024-01-30T02:23:03;101173.97;;;8.07;100.00
17072;BME280;7731;50.720;6.912;2024-01-30T02:25:40;101183.59;;;7.94;100.00
17072;BME280;7731;50.720;6.912;2024-01-30T02:28:12;101170.09;;;7.87;100.00
17072;BME280;7731;50.720;6.912;2024-01-30T02:30:43;101177.72;;;7.90;100.00
17072;BME280;7731;50.720;6.912;2024-01-30T02:33:22;101176.91;;;7.88;100.00
17072;BME280;7731;50.720;6.912;2024-01-30T02:35:52;101168.19;;;7.97;100.00
17072;BME280;7731;50.720;6.912;2024-01-30T02:38:28;101170.13;;;7.85;100.00
17072;BME280;7731;50.720;6.912;2024-01-30T02:40:58;101176.94;;;7.86;100.00
17072;BME280;7731;50.720;6.912;2024-01-30T02:43:28;101166.41;;;8.00;100.00
17072;BME280;7731;50.720;6.912;2024-01-30T02:45:59;101179.53;;;7.85;100.00
17072;BME280;7731;50.720;6.912;2024-01-30T02:48:29;101174.47;;;7.83;100.00
17072;BME280;7731;50.720;6.912;2024-01-30T02:51:00;101170.09;;;7.87;100.00
17072;BME280;7731;50.720;6.912;2024-01-30T02:53:32;101175.66;;;8.06;100.00
17072;BME280;7731;50.720;6.912;2024-01-30T02:56:10;101171.53;;;8.00;100.00
17072;BME280;7731;50.720;6.912;2024-01-30T02:58:44;101153.47;;;8.07;100.00
17072;BME280;7731;50.720;6.912;2024-01-30T03:01:23;101156.88;;;8.07;100.00
17072;BME280;7731;50.720;6.912;2024-01-30T03:03:54;101147.31;;;8.14;100.00
17072;BME280;7731;50.720;6.912;2024-01-30T03:06:27;101156.72;;;8.13;100.00
17072;BME280;7731;50.720;6.912;2024-01-30T03:09:03;101158.59;;;8.07;100.00
17072;BME280;7731;50.720;6.912;2024-01-30T03:11:34;101161.16;;;8.07;100.00
17072;BME280;7731;50.720;6.912;2024-01-30T03:14:04;101149.81;;;8.17;100.00
17072;BME280;7731;50.720;6.912;2024-01-30T03:16:35;101155.84;;;8.16;100.00
17072;BME280;7731;50.720;6.912;2024-01-30T03:19:07;101153.78;;;7.93;100.00
17072;BME280;7731;50.720;6.912;2024-01-30T03:21:40;101164.28;;;7.80;100.00
17072;BME280;7731;50.720;6.912;2024-01-30T03:24:15;101155.94;;;7.71;100.00
17072;BME280;7731;50.720;6.912;2024-01-30T03:26:46;101162.06;;;7.65;100.00
17072;BME280;7731;50.720;6.912;2024-01-30T03:29:19;101164.72;;;7.60;100.00
17072;BME280;7731;50.720;6.912;2024-01-30T03:31:49;101161.06;;;7.71;100.00
17072;BME280;7731;50.720;6.912;2024-01-30T03:34:19;101168.94;;;7.61;100.00
17072;BME280;7731;50.720;6.912;2024-01-30T03:36:52;101167.81;;;7.75;100.00
17072;BME280;7731;50.720;6.912;2024-01-30T03:39:28;101149.34;;;7.62;100.00
17072;BME280;7731;50.720;6.912;2024-01-30T03:42:02;101155.38;;;7.58;100.00
17072;BME280;7731;50.720;6.912;2024-01-30T03:44:32;101159.72;;;7.54;100.00
17072;BME280;7731;50.720;6.912;2024-01-30T03:47:03;101160.38;;;7.64;100.00
17072;BME280;7731;50.720;6.912;2024-01-30T03:49:33;101156.16;;;7.61;100.00
17072;BME280;7731;50.720;6.912;2024-01-30T03:52:04;101161.13;;;7.67;100.00
17072;BME280;7731;50.720;6.912;2024-01-30T03:54:37;101145.06;;;7.62;100.00
17072;BME280;7731;50.720;6.912;2024-01-30T03:57:07;101161.44;;;7.52;100.00
17072;BME280;7731;50.720;6.912;2024-01-30T03:59:46;101152.22;;;7.45;100.00
17072;BME280;7731;50.720;6.912;2024-01-30T04:02:16;101150.41;;;7.50;100.00
17072;BME280;7731;50.720;6.912;2024-01-30T04:04:53;101154.41;;;7.63;100.00
17072;BME280;7731;50.720;6.912;2024-01-30T04:07:26;101147.78;;;7.53;100.00
17072;BME280;7731;50.720;6.912;2024-01-30T04:10:03;101144.38;;;7.54;100.00
17072;BME280;7731;50.720;6.912;2024-01-30T04:12:34;101141.66;;;7.62;100.00
17072;BME280;7731;50.720;6.912;2024-01-30T04:15:05;101136.88;;;7.46;100.00
17072;BME280;7731;50.720;6.912;2024-01-30T04:17:36;101143.47;;;7.55;100.00
17072;BME280;7731;50.720;6.912;2024-01-30T04:20:08;101146.72;;;7.65;100.00
17072;BME280;7731;50.720;6.912;2024-01-30T04:22:46;101141.25;;;7.40;100.00
17072;BME280;7731;50.720;6.912;2024-01-30T04:25:28;101141.25;;;7.40;100.00
17072;BME280;7731;50.720;6.912;2024-01-30T04:27:59;101129.28;;;7.42;100.00
17072;BME280;7731;50.720;6.912;2024-01-30T04:30:29;101135.03;;;7.51;100.00
17072;BME280;7731;50.720;6.912;2024-01-30T04:32:59;101130.88;;;7.46;100.00
17072;BME280;7731;50.720;6.912;2024-01-30T04:35:33;101131.75;;;7.46;100.00
17072;BME280;7731;50.720;6.912;2024-01-30T04:38:11;101134.59;;;7.31;100.00
17072;BME280;7731;50.720;6.912;2024-01-30T04:40:44;101138.00;;;7.31;100.00
17072;BME280;7731;50.720;6.912;2024-01-30T04:43:17;101131.50;;;7.15;100.00
17072;BME280;7731;50.720;6.912;2024-01-30T04:45:51;101136.75;;;7.07;100.00
17072;BME280;7731;50.720;6.912;2024-01-30T04:48:21;101136.84;;;7.03;100.00
17072;BME280;7731;50.720;6.912;2024-01-30T04:50:59;101136.16;;;6.94;100.00
17072;BME280;7731;50.720;6.912;2024-01-30T04:53:30;101144.75;;;6.89;100.00
17072;BME280;7731;50.720;6.912;2024-01-30T04:56:07;101143.94;;;6.88;100.00
17072;BME280;7731;50.720;6.912;2024-01-30T04:58:41;101143.00;;;6.91;100.00
17072;BME280;7731;50.720;6.912;2024-01-30T05:01:15;101146.47;;;6.88;100.00
17072;BME280;7731;50.720;6.912;2024-01-30T05:03:55;101149.94;;;6.84;100.00
17072;BME280;7731;50.720;6.912;2024-01-30T05:06:26;101161.06;;;6.80;100.00
17072;BME280;7731;50.720;6.912;2024-01-30T05:08:56;101161.19;;;6.74;100.00
17072;BME280;7731;50.720;6.912;2024-01-30T05:11:37;101150.25;;;6.67;100.00
17072;BME280;7731;50.720;6.912;2024-01-30T05:14:08;101151.19;;;6.61;100.00
17072;BME280;7731;50.720;6.912;2024-01-30T05:16:39;101142.59;;;6.66;100.00
17072;BME280;7731;50.720;6.912;2024-01-30T05:19:16;101150.88;;;6.80;100.00
17072;BME280;7731;50.720;6.912;2024-01-30T05:21:48;101140.38;;;6.95;100.00
17072;BME280;7731;50.720;6.912;2024-01-30T05:24:23;101143.16;;;6.82;100.00
17072;BME280;7731;50.720;6.912;2024-01-30T05:26:59;101149.09;;;6.85;100.00
17072;BME280;7731;50.720;6.912;2024-01-30T05:29:32;101161.06;;;6.80;100.00
17072;BME280;7731;50.720;6.912;2024-01-30T05:32:03;101144.25;;;6.70;100.00
17072;BME280;7731;50.720;6.912;2024-01-30T05:34:33;101141.66;;;6.71;100.00
17072;BME280;7731;50.720;6.912;2024-01-30T05:37:04;101145.88;;;6.74;100.00
17072;BME280;7731;50.720;6.912;2024-01-30T05:39:34;101131.97;;;6.90;100.00
17072;BME280;7731;50.720;6.912;2024-01-30T05:42:07;101135.44;;;6.86;100.00
17072;BME280;7731;50.720;6.912;2024-01-30T05:44:41;101118.09;;;7.04;100.00
17072;BME280;7731;50.720;6.912;2024-01-30T05:47:14;101129.19;;;7.03;100.00
17072;BME280;7731;50.720;6.912;2024-01-30T05:49:47;101128.38;;;7.01;100.00
17072;BME280;7731;50.720;6.912;2024-01-30T05:52:20;101127.41;;;7.06;100.00
17072;BME280;7731;50.720;6.912;2024-01-30T05:54:50;101126.75;;;6.96;100.00
17072;BME280;7731;50.720;6.912;2024-01-30T05:57:25;101125.00;;;6.97;100.00
17072;BME280;7731;50.720;6.912;2024-01-30T05:59:55;101125.03;;;6.95;100.00
17072;BME280;7731;50.720;6.912;2024-01-30T06:02:26;101128.31;;;7.04;100.00
17072;BME280;7731;50.720;6.912;2024-01-30T06:04:56;101133.56;;;6.96;100.00
17072;BME280;7731;50.720;6.912;2024-01-30T06:07:26;101130.31;;;6.86;100.00
17072;BME280;7731;50.720;6.912;2024-01-30T06:10:03;101126.03;;;6.90;100.00
17072;BME280;7731;50.720;6.912;2024-01-30T06:12:37;101132.94;;;6.83;100.00
17072;BME280;7731;50.720;6.912;2024-01-30T06:15:09;101136.41;;;6.81;100.00
17072;BME280;7731;50.720;6.912;2024-01-30T06:17:40;101132.06;;;6.84;100.00
17072;BME280;7731;50.720;6.912;2024-01-30T06:20:10;101137.41;;;6.72;100.00
17072;BME280;7731;50.720;6.912;2024-01-30T06:22:50;101139.03;;;6.76;100.00
17072;BME280;7731;50.720;6.912;2024-01-30T06:25:20;101138.97;;;6.79;100.00
17072;BME280;7731;50.720;6.912;2024-01-30T06:27:55;101135.59;;;6.77;100.00
17072;BME280;7731;50.720;6.912;2024-01-30T06:30:28;101136.31;;;6.85;100.00
17072;BME280;7731;50.720;6.912;2024-01-30T06:32:58;101137.19;;;6.84;100.00
17072;BME280;7731;50.720;6.912;2024-01-30T06:35:29;101131.09;;;6.91;100.00
17072;BME280;7731;50.720;6.912;2024-01-30T06:37:59;101126.84;;;6.90;100.00
17072;BME280;7731;50.720;6.912;2024-01-30T06:40:29;101135.44;;;6.86;100.00
17072;BME280;7731;50.720;6.912;2024-01-30T06:43:02;101126.91;;;6.87;100.00
17072;BME280;7731;50.720;6.912;2024-01-30T06:45:33;101121.75;;;6.90;100.00
17072;BME280;7731;50.720;6.912;2024-01-30T06:48:10;101123.50;;;6.88;100.00
17072;BME280;7731;50.720;6.912;2024-01-30T06:50:41;101121.47;;;7.04;100.00
17072;BME280;7731;50.720;6.912;2024-01-30T06:53:11;101118.81;;;7.10;100.00
17072;BME280;7731;50.720;6.912;2024-01-30T06:55:42;101115.47;;;7.07;100.00
17072;BME280;7731;50.720;6.912;2024-01-30T06:58:14;101116.41;;;7.03;100.00
17072;BME280;7731;50.720;6.912;2024-01-30T07:00:48;101113.16;;;6.94;100.00
17072;BME280;7731;50.720;6.912;2024-01-30T07:03:18;101114.75;;;6.98;100.00
17072;BME280;7731;50.720;6.912;2024-01-30T07:05:49;101121.34;;;7.12;100.00
17072;BME280;7731;50.720;6.912;2024-01-30T07:08:19;101116.34;;;7.06;100.00
17072;BME280;7731;50.720;6.912;2024-01-30T07:10:49;101116.16;;;7.15;100.00
17072;BME280;7731;50.720;6.912;2024-01-30T07:13:33;101116.81;;;7.25;100.00
17072;BME280;7731;50.720;6.912;2024-01-30T07:16:04;101121.22;;;7.18;100.00
17072;BME280;7731;50.720;6.912;2024-01-30T07:18:35;101112.75;;;7.16;100.00
17072;BME280;7731;50.720;6.912;2024-01-30T07:21:13;101112.25;;;7.41;100.00
17072;BME280;7731;50.720;6.912;2024-01-30T07:23:43;101117.69;;;7.25;100.00
17072;BME280;7731;50.720;6.912;2024-01-30T07:26:16;101113.03;;;7.44;100.00
17072;BME280;7731;50.720;6.912;2024-01-30T07:28:49;101112.19;;;7.44;100.00
17072;BME280;7731;50.720;6.912;2024-01-30T07:31:25;101110.56;;;7.40;100.00
17072;BME280;7731;50.720;6.912;2024-01-30T07:34:00;101119.13;;;7.39;100.00
17072;BME280;7731;50.720;6.912;2024-01-30T07:36:30;101127.34;;;7.53;100.00
17072;BME280;7731;50.720;6.912;2024-01-30T07:39:01;101132.47;;;7.53;100.00
17072;BME280;7731;50.720;6.912;2024-01-30T07:41:31;101132.31;;;7.59;100.00
17072;BME280;7731;50.720;6.912;2024-01-30T07:44:07;101133.69;;;7.76;100.00
17072;BME280;7731;50.720;6.912;2024-01-30T07:46:37;101135.56;;;7.67;100.00
17072;BME280;7731;50.720;6.912;2024-01-30T07:49:08;101137.19;;;7.72;100.00
17072;BME280;7731;50.720;6.912;2024-01-30T07:51:38;101143.66;;;7.88;100.00
17072;BME280;7731;50.720;6.912;2024-01-30T07:54:11;101142.06;;;7.82;100.00
17072;BME280;7731;50.720;6.912;2024-01-30T07:56:41;101148.88;;;7.83;100.00
17072;BME280;7731;50.720;6.912;2024-01-30T07:59:14;101155.69;;;7.83;100.00
17072;BME280;7731;50.720;6.912;2024-01-30T08:02:02;101153.72;;;7.96;100.00
17072;BME280;7731;50.720;6.912;2024-01-30T08:04:32;101160.66;;;7.89;100.00
17072;BME280;7731;50.720;6.912;2024-01-30T08:07:03;101164.31;;;7.79;100.00
17072;BME280;7731;50.720;6.912;2024-01-30T08:09:33;101164.28;;;7.80;100.00
17072;BME280;7731;50.720;6.912;2024-01-30T08:12:05;101158.88;;;7.94;100.00
17072;BME280;7731;50.720;6.912;2024-01-30T08:14:38;101152.72;;;8.01;100.00
17072;BME280;7731;50.720;6.912;2024-01-30T08:17:11;101161.03;;;8.13;100.00
17072;BME280;7731;50.720;6.912;2024-01-30T08:19:44;101158.19;;;8.25;100.00
17072;BME280;7731;50.720;6.912;2024-01-30T08:22:15;101156.72;;;8.13;100.00
17072;BME280;7731;50.720;6.912;2024-01-30T08:24:45;101160.13;;;8.14;100.00
17072;BME280;7731;50.720;6.912;2024-01-30T08:27:16;101151.91;;;8.37;100.00
17072;BME280;7731;50.720;6.912;2024-01-30T08:29:49;101146.94;;;8.31;100.00
17072;BME280;7731;50.720;6.912;2024-01-30T08:32:19;101145.81;;;8.43;100.00
17072;BME280;7731;50.720;6.912;2024-01-30T08:34:50;101143.53;;;8.30;100.00
17072;BME280;7731;50.720;6.912;2024-01-30T08:37:23;101144.25;;;8.35;100.00
17072;BME280;7731;50.720;6.912;2024-01-30T08:39:56;101147.78;;;8.31;100.00
17072;BME280;7731;50.720;6.912;2024-01-30T08:42:27;101140.97;;;8.30;100.00
17072;BME280;7731;50.720;6.912;2024-01-30T08:45:00;101152.44;;;8.53;100.00
17072;BME280;7731;50.720;6.912;2024-01-30T08:47:32;101151.50;;;8.90;100.00
17072;BME280;7731;50.720;6.912;2024-01-30T08:50:04;101150.91;;;9.11;100.00
17072;BME280;7731;50.720;6.912;2024-01-30T08:52:38;101148.78;;;9.57;100.00
17072;BME280;7731;50.720;6.912;2024-01-30T08:55:08;101149.63;;;10.43;100.00
17072;BME280;7731;50.720;6.912;2024-01-30T08:57:50;101159.16;;;10.39;100.00
17072;BME280;7731;50.720;6.912;2024-01-30T09:00:24;101157.19;;;10.74;100.00
17072;BME280;7731;50.720;6.912;2024-01-30T09:02:57;101163.00;;;11.04;100.00
17072;BME280;7731;50.720;6.912;2024-01-30T09:05:28;101155.03;;;10.62;100.00
17072;BME280;7731;50.720;6.912;2024-01-30T09:07:58;101168.75;;;10.61;100.00
17072;BME280;7731;50.720;6.912;2024-01-30T09:10:29;101178.22;;;10.04;100.00
17072;BME280;7731;50.720;6.912;2024-01-30T09:12:59;101166.69;;;10.45;100.00
17072;BME280;7731;50.720;6.912;2024-01-30T09:15:32;101164.22;;;10.69;100.00
17072;BME280;7731;50.720;6.912;2024-01-30T09:18:03;101166.59;;;10.75;100.00
17072;BME280;7731;50.720;6.912;2024-01-30T09:20:36;101156.06;;;11.77;100.00
17072;BME280;7731;50.720;6.912;2024-01-30T09:23:06;101162.19;;;13.03;98.20
17072;BME280;7731;50.720;6.912;2024-01-30T09:25:36;101166.53;;;14.17;90.48
17072;BME280;7731;50.720;6.912;2024-01-30T09:28:10;101166.59;;;14.87;76.76
17072;BME280;7731;50.720;6.912;2024-01-30T09:30:43;101171.66;;;15.06;77.36
17072;BME280;7731;50.720;6.912;2024-01-30T09:33:16;101180.34;;;15.54;70.32
17072;BME280;7731;50.720;6.912;2024-01-30T09:35:50;101175.28;;;15.84;70.70
17072;BME280;7731;50.720;6.912;2024-01-30T09:38:22;101173.59;;;16.46;66.72
17072;BME280;7731;50.720;6.912;2024-01-30T09:40:58;101187.84;;;15.09;70.61
17072;BME280;7731;50.720;6.912;2024-01-30T09:43:34;101188.34;;;15.00;72.03
17072;BME280;7731;50.720;6.912;2024-01-30T09:46:12;101192.00;;;13.88;81.12
17072;BME280;7731;50.720;6.912;2024-01-30T09:48:46;101199.56;;;13.73;83.01
17072;BME280;7731;50.720;6.912;2024-01-30T09:51:18;101194.03;;;13.62;86.00
17072;BME280;7731;50.720;6.912;2024-01-30T09:53:54;101197.34;;;13.06;89.03
17072;BME280;7731;50.720;6.912;2024-01-30T09:56:25;101203.63;;;12.37;99.16
17072;BME280;7731;50.720;6.912;2024-01-30T09:58:58;101199.50;;;12.53;97.89
17072;BME280;7731;50.720;6.912;2024-01-30T10:01:37;101209.25;;;12.24;100.00
17072;BME280;7731;50.720;6.912;2024-01-30T10:04:09;101215.22;;;11.79;100.00
17072;BME280;7731;50.720;6.912;2024-01-30T10:06:40;101215.94;;;11.59;100.00
17072;BME280;7731;50.720;6.912;2024-01-30T10:09:12;101207.50;;;11.79;100.00
17072;BME280;7731;50.720;6.912;2024-01-30T10:11:43;101217.34;;;11.68;100.00
17072;BME280;7731;50.720;6.912;2024-01-30T10:14:16;101223.63;;;11.60;100.00
17072;BME280;7731;50.720;6.912;2024-01-30T10:16:51;101220.59;;;11.49;100.00
17072;BME280;7731;50.720;6.912;2024-01-30T10:19:22;101217.00;;;11.53;100.00
17072;BME280;7731;50.720;6.912;2024-01-30T10:21:52;101220.22;;;11.60;100.00
17072;BME280;7731;50.720;6.912;2024-01-30T10:24:26;101216.72;;;11.37;100.00
17072;BME280;7731;50.720;6.912;2024-01-30T10:26:56;101215.63;;;11.19;100.00
17072;BME280;7731;50.720;6.912;2024-01-30T10:29:27;101213.94;;;11.43;100.00
17072;BME280;7731;50.720;6.912;2024-01-30T10:32:05;101212.38;;;11.63;100.00
17072;BME280;7731;50.720;6.912;2024-01-30T10:34:36;101214.19;;;11.36;100.00
17072;BME280;7731;50.720;6.912;2024-01-30T10:37:09;101207.16;;;11.41;100.00
17072;BME280;7731;50.720;6.912;2024-01-30T10:39:47;101225.09;;;11.42;100.00
17072;BME280;7731;50.720;6.912;2024-01-30T10:42:26;101210.53;;;11.43;100.00
17072;BME280;7731;50.720;6.912;2024-01-30T10:45:06;101212.94;;;11.48;100.00
17072;BME280;7731;50.720;6.912;2024-01-30T10:47:42;101210.09;;;11.55;100.00
17072;BME280;7731;50.720;6.912;2024-01-30T10:50:13;101220.34;;;11.32;100.00
17072;BME280;7731;50.720;6.912;2024-01-30T10:52:51;101217.31;;;11.20;100.00
17072;BME280;7731;50.720;6.912;2024-01-30T10:55:26;101216.31;;;10.99;100.00
17072;BME280;7731;50.720;6.912;2024-01-30T10:57:59;101221.91;;;11.12;100.00
17072;BME280;7731;50.720;6.912;2024-01-30T11:00:30;101215.25;;;11.30;100.00
17072;BME280;7731;50.720;6.912;2024-01-30T11:03:13;101202.53;;;11.25;100.00
17072;BME280;7731;50.720;6.912;2024-01-30T11:05:50;101203.59;;;11.45;100.00
17072;BME280;7731;50.720;6.912;2024-01-30T11:08:24;101201.44;;;11.56;100.00
17072;BME280;7731;50.720;6.912;2024-01-30T11:10:57;101195.31;;;11.37;100.00
17072;BME280;7731;50.720;6.912;2024-01-30T11:13:29;101206.69;;;11.30;100.00
17072;BME280;7731;50.720;6.912;2024-01-30T11:16:03;101197.59;;;11.44;100.00
17072;BME280;7731;50.720;6.912;2024-01-30T11:18:36;101195.81;;;11.47;100.00
17072;BME280;7731;50.720;6.912;2024-01-30T11:21:07;101202.22;;;11.35;100.00
17072;BME280;7731;50.720;6.912;2024-01-30T11:23:38;101203.97;;;11.58;100.00
17072;BME280;7731;50.720;6.912;2024-01-30T11:26:11;101201.97;;;11.66;100.00
17072;BME280;7731;50.720;6.912;2024-01-30T11:28:41;101192.31;;;11.71;100.00
17072;BME280;7731;50.720;6.912;2024-01-30T11:31:29;101204.03;;;11.80;100.00
17072;BME280;7731;50.720;6.912;2024-01-30T11:34:18;101197.31;;;11.76;100.00
17072;BME280;7731;50.720;6.912;2024-01-30T11:36:56;101186.53;;;11.88;100.00
17072;BME280;7731;50.720;6.912;2024-01-30T11:39:30;101185.13;;;11.81;100.00
17072;BME280;7731;50.720;6.912;2024-01-30T11:42:00;101175.06;;;11.75;100.00
17072;BME280;7731;50.720;6.912;2024-01-30T11:44:32;101183.38;;;11.58;100.00
17072;BME280;7731;50.720;6.912;2024-01-30T11:47:03;101188.03;;;11.48;100.00
17072;BME280;7731;50.720;6.912;2024-01-30T11:49:36;101182.66;;;11.54;100.00
17072;BME280;7731;50.720;6.912;2024-01-30T11:52:07;101184.13;;;11.61;100.00
17072;BME280;7731;50.720;6.912;2024-01-30T11:54:43;101179.91;;;11.83;100.00
17072;BME280;7731;50.720;6.912;2024-01-30T11:57:14;101182.94;;;11.70;100.00
17072;BME280;7731;50.720;6.912;2024-01-30T11:59:44;101177.88;;;11.91;100.00
17072;BME280;7731;50.720;6.912;2024-01-30T12:02:17;101166.66;;;11.70;100.00
17072;BME280;7731;50.720;6.912;2024-01-30T12:04:50;101169.91;;;11.75;100.00
17072;BME280;7731;50.720;6.912;2024-01-30T12:07:20;101169.22;;;11.93;100.00
17072;BME280;7731;50.720;6.912;2024-01-30T12:09:56;101162.03;;;12.02;100.00
17072;BME280;7731;50.720;6.912;2024-01-30T12:12:28;101170.16;;;11.91;100.00
17072;BME280;7731;50.720;6.912;2024-01-30T12:15:08;101177.50;;;12.02;100.00
17072;BME280;7731;50.720;6.912;2024-01-30T12:17:40;101162.16;;;11.99;100.00
17072;BME280;7731;50.720;6.912;2024-01-30T12:20:17;101165.75;;;11.94;100.00
17072;BME280;7731;50.720;6.912;2024-01-30T12:22:50;101163.78;;;12.44;100.00
17072;BME280;7731;50.720;6.912;2024-01-30T12:25:22;101154.97;;;12.07;100.00
17072;BME280;7731;50.720;6.912;2024-01-30T12:27:53;101162.31;;;12.38;100.00
17072;BME280;7731;50.720;6.912;2024-01-30T12:30:23;101167.97;;;12.04;100.00
17072;BME280;7731;50.720;6.912;2024-01-30T12:32:56;101178.56;;;11.96;100.00
17072;BME280;7731;50.720;6.912;2024-01-30T12:35:29;101183.44;;;11.80;100.00
17072;BME280;7731;50.720;6.912;2024-01-30T12:38:06;101183.09;;;11.89;100.00
17072;BME280;7731;50.720;6.912;2024-01-30T12:40:37;101183.78;;;11.71;100.00
17072;BME280;7731;50.720;6.912;2024-01-30T12:43:11;101183.44;;;11.80;100.00
17072;BME280;7731;50.720;6.912;2024-01-30T12:46:01;101196.41;;;11.77;100.00
17072;BME280;7731;50.720;6.912;2024-01-30T12:48:31;101205.94;;;11.75;100.00
17072;BME280;7731;50.720;6.912;2024-01-30T12:51:07;101205.59;;;11.84;100.00
17072;BME280;7731;50.720;6.912;2024-01-30T12:53:38;101196.72;;;11.91;100.00
17072;BME280;7731;50.720;6.912;2024-01-30T12:56:08;101195.88;;;11.92;100.00
17072;BME280;7731;50.720;6.912;2024-01-30T12:58:38;101189.53;;;11.77;100.00
17072;BME280;7731;50.720;6.912;2024-01-30T13:01:29;101195.00;;;11.93;100.00
17072;BME280;7731;50.720;6.912;2024-01-30T13:04:15;101193.06;;;11.99;100.00
17072;BME280;7731;50.720;6.912;2024-01-30T13:06:48;101196.16;;;12.07;100.00
17072;BME280;7731;50.720;6.912;2024-01-30T13:09:18;101193.91;;;12.21;100.00
17072;BME280;7731;50.720;6.912;2024-01-30T13:11:49;101205.28;;;12.38;100.00
17072;BME280;7731;50.720;6.912;2024-01-30T13:14:23;101203.38;;;12.43;100.00
17072;BME280;7731;50.720;6.912;2024-01-30T13:16:53;101206.72;;;12.45;100.00
17072;BME280;7731;50.720;6.912;2024-01-30T13:19:26;101202.63;;;12.61;100.00
17072;BME280;7731;50.720;6.912;2024-01-30T13:21:59;101210.78;;;12.50;100.00
17072;BME280;7731;50.720;6.912;2024-01-30T13:24:32;101206.31;;;12.33;100.00
17072;BME280;7731;50.720;6.912;2024-01-30T13:27:03;101212.06;;;12.18;100.00